Idlewood, Illinois
Current Conditions -  °F | °C
As of 8:55 PM on Sunday 21 Dec 2014 (Local Time) from KMVN Reporting Station
Clear Clear  
Wind Chill: -2°   Ceiling: Unl
Heat Index:   Visibility: 10mi
Dew Point: -4°   Wind: 7mph
Humidity: 70%   Direction: 70°ENE
Pressure: 30.02"   Gusts: NA
Location:  38.3147°N, 88.9065°W
Report Text: KMVN 220255Z AUTO 07006KT 10SM CLR 01/M04 A3002 RMK AO1 57020
Loading
Personal Weather Stations






























Interactive Weather Map New forecast layout! Learn more

10-Day Weather Forecast

Advertisements
Track Severe Weather on mobile